Time;durP1;ratioP1;P1;durP2;ratioP2;P2;SDS_P1;SDS_P2;PMS_P1;PMS_P2;Temp;Humidity;BMP_temperature;BMP_pressure;BME280_temperature;BME280_humidity;BME280_pressure;Samples;Min_cycle;Max_cycle;Signal;HPM_P1;HPM_P2
2022/09/07 00:00:51;;;;;;;2.40;2.20;;;;;;;;;;5052932;28;20229;-64
2022/09/07 00:03:26;;;;;;;2.70;2.30;;;;;;;;;;5045372;28;20210;-65
2022/09/07 00:05:54;;;;;;;4.03;2.37;;;;;;;;;;5035536;28;20206;-64
2022/09/07 00:08:26;;;;;;;2.90;2.33;;;;;;;;;;5051918;28;20217;-64
2022/09/07 00:11:04;;;;;;;3.77;2.73;;;;;;;;;;5045837;28;20251;-64
2022/09/07 00:13:40;;;;;;;3.13;2.63;;;;;;;;;;5045392;28;20559;-64
2022/09/07 00:16:33;;;;;;;2.97;2.10;;;;;;;;;;5060223;28;20694;-64
2022/09/07 00:19:03;;;;;;;3.40;2.30;;;;;;;;;;5028906;28;20209;-64
2022/09/07 00:21:35;;;;;;;2.40;2.20;;;;;;;;;;5071167;28;20200;-64
2022/09/07 00:24:04;;;;;;;2.93;2.13;;;;;;;;;;5045416;28;20222;-64
2022/09/07 00:26:36;;;;;;;2.60;2.30;;;;;;;;;;5044063;28;20214;-64
2022/09/07 00:29:07;;;;;;;3.00;1.90;;;;;;;;;;5047114;28;20214;-64
2022/09/07 00:31:36;;;;;;;2.37;2.00;;;;;;;;;;5043861;28;20217;-64
2022/09/07 00:34:06;;;;;;;4.13;2.30;;;;;;;;;;5046053;28;20206;-64
2022/09/07 00:36:36;;;;;;;1.80;1.70;;;;;;;;;;5051158;28;20190;-65
2022/09/07 00:39:06;;;;;;;4.50;2.27;;;;;;;;;;5043765;28;20795;-64
2022/09/07 00:41:35;;;;;;;2.67;1.80;;;;;;;;;;5061630;28;20350;-64
2022/09/07 00:44:24;;;;;;;2.77;1.90;;;;;;;;;;5063093;28;20631;-63
2022/09/07 00:46:56;;;;;;;2.60;2.00;;;;;;;;;;5047280;28;20210;-64
2022/09/07 00:49:27;;;;;;;2.67;1.97;;;;;;;;;;5047140;28;20313;-63
2022/09/07 00:51:58;;;;;;;3.33;2.10;;;;;;;;;;5054427;28;20202;-64
2022/09/07 00:54:29;;;;;;;3.53;2.20;;;;;;;;;;5038878;28;20178;-65
2022/09/07 00:57:01;;;;;;;3.30;1.93;;;;;;;;;;5055155;28;20278;-64
2022/09/07 00:59:35;;;;;;;4.97;2.10;;;;;;;;;;5048864;28;20182;-67
2022/09/07 01:02:25;;;;;;;2.40;2.00;;;;;;;;;;5053980;28;20726;-65
2022/09/07 01:05:05;;;;;;;2.63;1.90;;;;;;;;;;5050561;28;20251;-65
2022/09/07 01:07:40;;;;;;;2.73;1.70;;;;;;;;;;5038638;28;20218;-66
2022/09/07 01:10:15;;;;;;;2.83;2.07;;;;;;;;;;5061094;28;20191;-65
2022/09/07 01:12:52;;;;;;;3.23;1.83;;;;;;;;;;5047156;28;20198;-66
2022/09/07 01:15:30;;;;;;;3.87;2.00;;;;;;;;;;5047305;28;20772;-66
2022/09/07 01:18:22;;;;;;;2.20;2.00;;;;;;;;;;5044725;28;20582;-65
2022/09/07 01:21:14;;;;;;;1.87;1.70;;;;;;;;;;5053802;28;20288;-65
2022/09/07 01:23:50;;;;;;;3.37;1.83;;;;;;;;;;5045514;28;20194;-65
2022/09/07 01:26:32;;;;;;;1.73;1.63;;;;;;;;;;5052181;28;20221;-66
2022/09/07 01:29:10;;;;;;;2.63;1.80;;;;;;;;;;5039669;28;20217;-66
2022/09/07 01:31:58;;;;;;;2.20;1.70;;;;;;;;;;5056331;28;20253;-65
2022/09/07 01:34:27;;;;;;;1.80;1.60;;;;;;;;;;5052001;28;20550;-65
2022/09/07 01:37:18;;;;;;;2.63;1.70;;;;;;;;;;5063411;28;20198;-65
2022/09/07 01:40:00;;;;;;;1.60;1.47;;;;;;;;;;5016200;28;20818;-65
2022/09/07 01:42:37;;;;;;;2.57;1.87;;;;;;;;;;5053198;28;20568;-65
2022/09/07 01:45:13;;;;;;;4.10;1.77;;;;;;;;;;5066055;28;20194;-65
2022/09/07 01:47:42;;;;;;;1.93;1.73;;;;;;;;;;5053239;28;20214;-65
2022/09/07 01:50:25;;;;;;;2.03;1.83;;;;;;;;;;5055267;28;20273;-66
2022/09/07 01:53:30;;;;;;;2.83;1.77;;;;;;;;;;5038472;28;20202;-65
2022/09/07 01:56:14;;;;;;;2.97;1.53;;;;;;;;;;5048730;28;20754;-65
2022/09/07 01:58:51;;;;;;;1.63;1.50;;;;;;;;;;5061230;28;20253;-65
2022/09/07 02:01:31;;;;;;;2.20;1.90;;;;;;;;;;5030315;28;20564;-66
2022/09/07 02:04:03;;;;;;;1.57;1.40;;;;;;;;;;5050781;28;20252;-65
2022/09/07 02:06:40;;;;;;;1.87;1.60;;;;;;;;;;5063930;28;20662;-66
2022/09/07 02:09:32;;;;;;;1.60;1.37;;;;;;;;;;5050066;28;20547;-66
2022/09/07 02:12:07;;;;;;;3.03;1.80;;;;;;;;;;5054207;28;20202;-65
2022/09/07 02:14:48;;;;;;;1.93;1.60;;;;;;;;;;5049359;28;20757;-65
2022/09/07 02:17:43;;;;;;;1.60;1.20;;;;;;;;;;5057175;28;20203;-66
2022/09/07 02:20:20;;;;;;;2.93;1.33;;;;;;;;;;5047512;28;20225;-65
2022/09/07 02:22:54;;;;;;;3.23;1.60;;;;;;;;;;5065388;28;20674;-66
2022/09/07 02:25:29;;;;;;;2.40;1.60;;;;;;;;;;5064965;28;20313;-65
2022/09/07 02:28:05;;;;;;;1.33;1.23;;;;;;;;;;5042062;28;20245;-66
2022/09/07 02:30:36;;;;;;;1.80;1.50;;;;;;;;;;5061060;28;20201;-66
2022/09/07 02:33:16;;;;;;;2.53;1.40;;;;;;;;;;5061928;28;20271;-66
2022/09/07 02:35:46;;;;;;;1.77;1.50;;;;;;;;;;5057396;28;20611;-65
2022/09/07 02:38:15;;;;;;;1.23;1.13;;;;;;;;;;5036478;28;20271;-66
2022/09/07 02:40:57;;;;;;;1.50;1.37;;;;;;;;;;5049284;28;20243;-66
2022/09/07 02:43:32;;;;;;;1.77;1.33;;;;;;;;;;5037821;28;20198;-66
2022/09/07 02:46:02;;;;;;;1.57;1.17;;;;;;;;;;5062239;28;20221;-65
2022/09/07 02:48:38;;;;;;;1.47;1.23;;;;;;;;;;5056103;28;20218;-65
2022/09/07 02:51:16;;;;;;;1.30;1.20;;;;;;;;;;5034772;28;20205;-66
2022/09/07 02:53:51;;;;;;;2.13;1.73;;;;;;;;;;5050616;28;20194;-65
2022/09/07 02:56:23;;;;;;;1.83;1.30;;;;;;;;;;5057613;28;20802;-65
2022/09/07 02:59:06;;;;;;;2.33;1.30;;;;;;;;;;5051366;28;20198;-65
2022/09/07 03:01:40;;;;;;;1.50;1.27;;;;;;;;;;5043315;28;20211;-65
2022/09/07 03:04:39;;;;;;;1.80;1.30;;;;;;;;;;5030949;28;20214;-65
2022/09/07 03:07:17;;;;;;;2.63;1.33;;;;;;;;;;5061393;28;20518;-65
2022/09/07 03:09:50;;;;;;;2.23;1.20;;;;;;;;;;5033973;28;20198;-65
2022/09/07 03:12:17;;;;;;;1.40;1.30;;;;;;;;;;5039149;28;20627;-65
2022/09/07 03:14:53;;;;;;;1.97;1.30;;;;;;;;;;5044138;28;20542;-66
2022/09/07 03:17:21;;;;;;;2.13;1.40;;;;;;;;;;5056602;28;20230;-66
2022/09/07 03:19:55;;;;;;;1.77;1.40;;;;;;;;;;5064170;28;20190;-65
2022/09/07 03:22:35;;;;;;;1.87;1.40;;;;;;;;;;5053455;28;20256;-65
2022/09/07 03:25:07;;;;;;;1.60;1.30;;;;;;;;;;5055268;28;20207;-66
2022/09/07 03:27:37;;;;;;;1.20;1.10;;;;;;;;;;5038617;28;20321;-65
2022/09/07 03:30:10;;;;;;;1.80;1.20;;;;;;;;;;5047981;28;20616;-65
2022/09/07 03:32:42;;;;;;;2.83;1.20;;;;;;;;;;5052638;28;20186;-66
2022/09/07 03:35:14;;;;;;;1.13;1.00;;;;;;;;;;5052811;28;20201;-66
2022/09/07 03:37:45;;;;;;;1.13;0.97;;;;;;;;;;5067066;28;20201;-65
2022/09/07 03:40:15;;;;;;;2.00;1.40;;;;;;;;;;5045220;28;20217;-66
2022/09/07 03:42:47;;;;;;;1.03;1.00;;;;;;;;;;5031225;28;20201;-66
2022/09/07 03:45:16;;;;;;;1.43;1.13;;;;;;;;;;5050673;28;20262;-66
2022/09/07 03:47:45;;;;;;;1.17;1.00;;;;;;;;;;5065748;28;20206;-65
2022/09/07 03:50:18;;;;;;;1.40;1.10;;;;;;;;;;5043538;28;20231;-66
2022/09/07 03:52:51;;;;;;;1.77;1.10;;;;;;;;;;5050563;28;20197;-66
2022/09/07 03:55:20;;;;;;;1.33;1.20;;;;;;;;;;5048211;28;20523;-65
2022/09/07 03:57:51;;;;;;;1.43;1.20;;;;;;;;;;5060505;28;20194;-66
2022/09/07 04:00:23;;;;;;;1.60;1.10;;;;;;;;;;5048178;28;20202;-65
2022/09/07 04:02:53;;;;;;;1.83;0.93;;;;;;;;;;5062846;28;20228;-65
2022/09/07 04:05:25;;;;;;;1.60;1.13;;;;;;;;;;5056832;28;20193;-66
2022/09/07 04:07:58;;;;;;;2.13;1.27;;;;;;;;;;5045943;28;20229;-66
2022/09/07 04:10:27;;;;;;;1.07;0.97;;;;;;;;;;5039994;28;20197;-66
2022/09/07 04:12:59;;;;;;;3.33;1.20;;;;;;;;;;5063215;28;20238;-65
2022/09/07 04:15:31;;;;;;;1.00;0.90;;;;;;;;;;5062558;28;20229;-66
2022/09/07 04:18:01;;;;;;;1.63;1.30;;;;;;;;;;5041609;28;20693;-65
2022/09/07 04:20:31;;;;;;;1.20;1.10;;;;;;;;;;5033288;28;20194;-66
2022/09/07 04:23:00;;;;;;;1.97;1.30;;;;;;;;;;5051680;28;20208;-66
2022/09/07 04:25:29;;;;;;;1.30;1.10;;;;;;;;;;5051309;28;20202;-65
2022/09/07 04:27:59;;;;;;;1.40;1.20;;;;;;;;;;5043947;28;20225;-68
2022/09/07 04:30:35;;;;;;;1.40;0.80;;;;;;;;;;5052005;28;20190;-68
2022/09/07 04:33:05;;;;;;;1.30;1.20;;;;;;;;;;5043867;28;20209;-68
2022/09/07 04:35:35;;;;;;;1.10;1.00;;;;;;;;;;5052911;28;20218;-68
2022/09/07 04:38:07;;;;;;;1.27;1.10;;;;;;;;;;5059276;28;20228;-67
2022/09/07 04:40:37;;;;;;;1.33;1.17;;;;;;;;;;5017488;28;20378;-67
2022/09/07 04:43:11;;;;;;;1.50;1.20;;;;;;;;;;5052149;28;20206;-67
2022/09/07 04:46:02;;;;;;;1.47;1.10;;;;;;;;;;5039316;28;20387;-67
2022/09/07 04:48:32;;;;;;;1.57;1.17;;;;;;;;;;5057224;28;20203;-67
2022/09/07 04:51:07;;;;;;;1.20;1.00;;;;;;;;;;5035782;28;20217;-68
2022/09/07 04:53:40;;;;;;;1.40;1.10;;;;;;;;;;5050081;28;20209;-68
2022/09/07 04:56:09;;;;;;;1.20;1.10;;;;;;;;;;5045745;28;20201;-67
2022/09/07 04:58:45;;;;;;;2.13;1.10;;;;;;;;;;5043846;28;20206;-69
2022/09/07 05:01:15;;;;;;;1.63;0.90;;;;;;;;;;5051715;28;20198;-67
2022/09/07 05:03:52;;;;;;;1.13;1.03;;;;;;;;;;5037271;28;20609;-68
2022/09/07 05:06:22;;;;;;;1.93;1.10;;;;;;;;;;5046856;28;20726;-68
2022/09/07 05:08:54;;;;;;;2.03;1.20;;;;;;;;;;5054357;28;20237;-68
2022/09/07 05:11:24;;;;;;;1.43;0.90;;;;;;;;;;5029541;28;20639;-67
2022/09/07 05:14:02;;;;;;;2.00;1.00;;;;;;;;;;5022754;28;20600;-67
2022/09/07 05:16:33;;;;;;;1.20;1.03;;;;;;;;;;5035845;28;20224;-66
2022/09/07 05:19:06;;;;;;;1.67;1.20;;;;;;;;;;5054674;28;20702;-66
2022/09/07 05:21:36;;;;;;;1.77;1.33;;;;;;;;;;5061225;28;20214;-68
2022/09/07 05:24:06;;;;;;;1.23;1.13;;;;;;;;;;5050831;28;20194;-68
2022/09/07 05:26:39;;;;;;;2.73;1.10;;;;;;;;;;5051730;28;20361;-68
2022/09/07 05:29:11;;;;;;;2.03;1.43;;;;;;;;;;5070177;28;20209;-69
2022/09/07 05:32:04;;;;;;;1.20;1.10;;;;;;;;;;5018279;28;20241;-68
2022/09/07 05:34:34;;;;;;;2.67;1.50;;;;;;;;;;5067239;28;20201;-68
2022/09/07 05:37:06;;;;;;;1.57;1.30;;;;;;;;;;5062818;28;20217;-69
2022/09/07 05:39:33;;;;;;;2.93;1.20;;;;;;;;;;5047739;28;20283;-69
2022/09/07 05:42:06;;;;;;;2.23;1.33;;;;;;;;;;5047792;28;20205;-67
2022/09/07 05:44:37;;;;;;;1.50;1.10;;;;;;;;;;5055439;28;20198;-67
2022/09/07 05:47:14;;;;;;;1.30;1.10;;;;;;;;;;5022061;28;20190;-68
2022/09/07 05:49:47;;;;;;;1.70;1.43;;;;;;;;;;5042042;28;20244;-68
2022/09/07 05:52:17;;;;;;;1.50;1.30;;;;;;;;;;5060056;28;20228;-67
2022/09/07 05:54:49;;;;;;;2.03;1.50;;;;;;;;;;5049410;28;20190;-67
2022/09/07 05:57:36;;;;;;;3.53;1.50;;;;;;;;;;5046881;28;20232;-65
2022/09/07 06:00:07;;;;;;;2.23;1.40;;;;;;;;;;5050450;28;20190;-66
2022/09/07 06:02:37;;;;;;;3.80;1.90;;;;;;;;;;5042766;28;20212;-66
2022/09/07 06:05:09;;;;;;;2.13;1.30;;;;;;;;;;5060569;28;20657;-66
2022/09/07 06:07:40;;;;;;;2.20;1.47;;;;;;;;;;5050657;28;20291;-65
2022/09/07 06:10:12;;;;;;;1.57;1.40;;;;;;;;;;5061829;28;20265;-69
2022/09/07 06:13:06;;;;;;;3.33;1.70;;;;;;;;;;5050212;28;20228;-69
2022/09/07 06:15:38;;;;;;;3.63;1.50;;;;;;;;;;5048634;28;20211;-67
2022/09/07 06:18:11;;;;;;;4.30;1.57;;;;;;;;;;5048213;28;20256;-66
2022/09/07 06:20:42;;;;;;;5.00;1.80;;;;;;;;;;5029572;28;20197;-65
2022/09/07 06:23:13;;;;;;;2.37;1.60;;;;;;;;;;5048650;28;20226;-65
2022/09/07 06:25:50;;;;;;;8.43;2.10;;;;;;;;;;5040441;28;20194;-65
2022/09/07 06:28:19;;;;;;;2.90;1.40;;;;;;;;;;5023164;28;20216;-65
2022/09/07 06:30:50;;;;;;;4.70;1.83;;;;;;;;;;5048153;28;20205;-65
2022/09/07 06:33:21;;;;;;;4.83;2.10;;;;;;;;;;5047632;28;20191;-65
2022/09/07 06:36:00;;;;;;;5.73;2.07;;;;;;;;;;5043813;28;20206;-66
2022/09/07 06:38:40;;;;;;;9.90;2.30;;;;;;;;;;5038449;28;20213;-66
2022/09/07 06:41:15;;;;;;;3.90;2.00;;;;;;;;;;5050786;28;20186;-68
2022/09/07 06:44:06;;;;;;;4.47;2.17;;;;;;;;;;5049739;28;20205;-68
2022/09/07 06:46:36;;;;;;;4.33;2.10;;;;;;;;;;5059180;28;20570;-66
2022/09/07 06:49:30;;;;;;;4.53;2.07;;;;;;;;;;5047494;28;20292;-68
2022/09/07 06:52:01;;;;;;;4.07;2.03;;;;;;;;;;5039680;28;20203;-67
2022/09/07 06:54:34;;;;;;;186.80;32.00;;;;;;;;;;5047710;28;20721;-64
2022/09/07 06:57:29;;;;;;;224.43;40.57;;;;;;;;;;5045815;28;20194;-65
2022/09/07 06:59:59;;;;;;;211.57;40.07;;;;;;;;;;5061702;28;20285;-65
2022/09/07 07:02:32;;;;;;;164.87;36.53;;;;;;;;;;5044189;28;20283;-64
2022/09/07 07:05:07;;;;;;;148.20;31.17;;;;;;;;;;5077908;28;20206;-64
2022/09/07 07:07:38;;;;;;;135.57;30.13;;;;;;;;;;5043608;28;21417;-65
2022/09/07 07:10:07;;;;;;;108.70;26.93;;;;;;;;;;5048197;28;20198;-65
2022/09/07 07:12:36;;;;;;;107.83;23.97;;;;;;;;;;5039679;28;20190;-64
2022/09/07 07:15:04;;;;;;;93.27;22.50;;;;;;;;;;5045653;28;20201;-64
2022/09/07 07:17:34;;;;;;;68.07;19.73;;;;;;;;;;5047362;28;20187;-64
2022/09/07 07:20:07;;;;;;;64.80;18.67;;;;;;;;;;5049366;28;20201;-64
2022/09/07 07:22:37;;;;;;;63.17;17.17;;;;;;;;;;5046704;28;20209;-65
2022/09/07 07:25:15;;;;;;;63.80;16.77;;;;;;;;;;5047858;28;20301;-64
2022/09/07 07:27:54;;;;;;;47.40;15.70;;;;;;;;;;5042166;28;20675;-65
2022/09/07 07:30:24;;;;;;;39.37;13.50;;;;;;;;;;5048010;28;20671;-64
2022/09/07 07:32:57;;;;;;;39.17;13.13;;;;;;;;;;5044719;28;20202;-64
2022/09/07 07:35:30;;;;;;;33.93;12.30;;;;;;;;;;5080817;28;20217;-65
2022/09/07 07:38:00;;;;;;;32.23;11.93;;;;;;;;;;5042653;28;20659;-65
2022/09/07 07:40:56;;;;;;;31.90;10.67;;;;;;;;;;5053371;28;20229;-65
2022/09/07 07:43:57;;;;;;;21.97;9.07;;;;;;;;;;5049365;28;20194;-65
2022/09/07 07:46:29;;;;;;;24.40;9.27;;;;;;;;;;5039486;28;20308;-65
2022/09/07 07:49:02;;;;;;;19.80;8.70;;;;;;;;;;5045405;28;20245;-65
2022/09/07 07:51:32;;;;;;;24.03;8.17;;;;;;;;;;5054446;28;20652;-65
2022/09/07 07:54:15;;;;;;;18.10;8.23;;;;;;;;;;5047804;28;20252;-68
2022/09/07 07:56:46;;;;;;;16.70;8.57;;;;;;;;;;5070010;28;20244;-65
2022/09/07 07:59:22;;;;;;;20.47;7.87;;;;;;;;;;5064497;28;20197;-66
2022/09/07 08:01:54;;;;;;;15.13;7.50;;;;;;;;;;5053020;28;20279;-67
2022/09/07 08:04:26;;;;;;;12.10;7.17;;;;;;;;;;5059493;28;20713;-66
2022/09/07 08:06:56;;;;;;;10.97;6.47;;;;;;;;;;5068185;28;20206;-67
2022/09/07 08:09:31;;;;;;;15.73;6.50;;;;;;;;;;5042499;28;20209;-66
2022/09/07 08:12:05;;;;;;;10.97;5.83;;;;;;;;;;5057828;28;20189;-66
2022/09/07 08:14:39;;;;;;;13.00;6.57;;;;;;;;;;5057293;28;20650;-66
2022/09/07 08:17:12;;;;;;;12.70;6.60;;;;;;;;;;5050208;28;20204;-65
2022/09/07 08:19:41;;;;;;;10.63;6.00;;;;;;;;;;5065770;28;20190;-65
2022/09/07 08:22:11;;;;;;;9.93;6.23;;;;;;;;;;5063362;28;20196;-64
2022/09/07 08:24:43;;;;;;;8.37;5.33;;;;;;;;;;5069388;28;20557;-65
2022/09/07 08:27:18;;;;;;;8.73;5.40;;;;;;;;;;5071454;28;20213;-66
2022/09/07 08:29:48;;;;;;;7.60;5.10;;;;;;;;;;5065787;28;20670;-65
2022/09/07 08:32:20;;;;;;;9.50;5.80;;;;;;;;;;5072979;28;20267;-65
2022/09/07 08:34:51;;;;;;;7.93;5.33;;;;;;;;;;5069350;28;20650;-65
2022/09/07 08:37:21;;;;;;;7.00;6.00;;;;;;;;;;5065340;28;20198;-67
2022/09/07 08:39:52;;;;;;;9.77;5.33;;;;;;;;;;5057617;28;20206;-64
2022/09/07 08:42:35;;;;;;;10.50;5.47;;;;;;;;;;5074974;28;20291;-64
2022/09/07 08:45:10;;;;;;;11.37;5.57;;;;;;;;;;5067394;28;20197;-65
2022/09/07 08:47:47;;;;;;;8.10;5.47;;;;;;;;;;5069828;28;20197;-66
2022/09/07 08:50:22;;;;;;;8.63;5.20;;;;;;;;;;5043337;28;20303;-66
2022/09/07 08:52:52;;;;;;;6.33;5.13;;;;;;;;;;5047182;28;20643;-66
2022/09/07 08:55:25;;;;;;;6.67;5.93;;;;;;;;;;5045763;28;20664;-66
2022/09/07 08:58:20;;;;;;;7.70;5.63;;;;;;;;;;5042518;28;20228;-66
2022/09/07 09:01:14;;;;;;;6.23;5.50;;;;;;;;;;5041982;28;20277;-65
2022/09/07 09:04:01;;;;;;;7.07;5.20;;;;;;;;;;5039775;28;20218;-65
2022/09/07 09:07:06;;;;;;;7.00;5.07;;;;;;;;;;5056165;28;20256;-65
2022/09/07 09:10:03;;;;;;;5.97;5.17;;;;;;;;;;5043184;28;20203;-65
2022/09/07 09:12:43;;;;;;;5.53;4.50;;;;;;;;;;5078336;28;20209;-66
2022/09/07 09:15:30;;;;;;;4.93;4.53;;;;;;;;;;5042577;28;20201;-65
2022/09/07 09:18:12;;;;;;;4.83;4.30;;;;;;;;;;5044189;28;20252;-65
2022/09/07 09:20:59;;;;;;;5.57;4.97;;;;;;;;;;5054476;28;20206;-65
2022/09/07 09:23:39;;;;;;;4.83;4.30;;;;;;;;;;5031153;28;20224;-65
2022/09/07 09:26:15;;;;;;;5.27;4.70;;;;;;;;;;5054895;28;20218;-66
2022/09/07 09:28:47;;;;;;;5.77;4.87;;;;;;;;;;5046907;28;20209;-66
2022/09/07 09:31:29;;;;;;;5.60;5.10;;;;;;;;;;5046368;28;20205;-65
2022/09/07 09:34:19;;;;;;;5.40;4.90;;;;;;;;;;5037194;28;20210;-65
2022/09/07 09:36:56;;;;;;;6.20;4.47;;;;;;;;;;5045670;28;20492;-64
2022/09/07 09:39:33;;;;;;;4.63;4.23;;;;;;;;;;5056661;28;20306;-65
2022/09/07 09:42:27;;;;;;;5.77;4.63;;;;;;;;;;5043339;28;20213;-66
2022/09/07 09:45:05;;;;;;;4.33;3.80;;;;;;;;;;5075406;28;20257;-66
2022/09/07 09:47:39;;;;;;;4.73;4.23;;;;;;;;;;5045705;28;20425;-64
2022/09/07 09:50:46;;;;;;;4.40;4.00;;;;;;;;;;5057497;28;20275;-65
2022/09/07 09:53:36;;;;;;;4.17;3.77;;;;;;;;;;5002295;28;20195;-66
2022/09/07 09:56:08;;;;;;;4.03;3.70;;;;;;;;;;5000760;28;20200;-66
2022/09/07 09:58:44;;;;;;;4.17;3.77;;;;;;;;;;4999375;28;20208;-65
2022/09/07 10:01:38;;;;;;;3.50;3.20;;;;;;;;;;4984960;28;20571;-65
2022/09/07 10:04:33;;;;;;;4.97;3.10;;;;;;;;;;4993133;28;20195;-65
2022/09/07 10:07:23;;;;;;;3.20;2.90;;;;;;;;;;5013494;28;20216;-65
2022/09/07 10:09:56;;;;;;;7.73;3.20;;;;;;;;;;5065947;28;20297;-66
2022/09/07 10:12:35;;;;;;;5.53;3.20;;;;;;;;;;5069330;28;20201;-65
2022/09/07 10:15:09;;;;;;;2.83;2.57;;;;;;;;;;5038308;28;20203;-64
2022/09/07 10:17:49;;;;;;;6.60;2.67;;;;;;;;;;5065394;28;20208;-65
2022/09/07 10:20:36;;;;;;;3.33;2.90;;;;;;;;;;5067502;28;20815;-65
2022/09/07 10:23:20;;;;;;;3.87;2.83;;;;;;;;;;5084456;28;20203;-65
2022/09/07 10:25:56;;;;;;;2.53;2.33;;;;;;;;;;5062645;28;20217;-64
2022/09/07 10:28:26;;;;;;;2.70;2.50;;;;;;;;;;5051697;28;20699;-65
2022/09/07 10:31:19;;;;;;;2.73;2.23;;;;;;;;;;5059195;28;20728;-65
2022/09/07 10:34:02;;;;;;;2.47;2.20;;;;;;;;;;5078205;28;20190;-65
2022/09/07 10:36:57;;;;;;;2.70;2.43;;;;;;;;;;5052203;28;20189;-65
2022/09/07 10:39:43;;;;;;;2.67;2.40;;;;;;;;;;5056833;28;20274;-66
2022/09/07 10:42:28;;;;;;;3.87;2.40;;;;;;;;;;5077363;28;20209;-65
2022/09/07 10:45:20;;;;;;;2.40;2.13;;;;;;;;;;5070443;28;20194;-65
2022/09/07 10:48:10;;;;;;;2.83;2.10;;;;;;;;;;5064191;28;20205;-65
2022/09/07 10:50:58;;;;;;;2.53;1.90;;;;;;;;;;5062255;28;20229;-66
2022/09/07 10:53:53;;;;;;;3.57;1.90;;;;;;;;;;5057057;28;20224;-65
2022/09/07 10:57:00;;;;;;;2.37;2.00;;;;;;;;;;5054599;28;20627;-65
2022/09/07 11:00:10;;;;;;;3.03;2.10;;;;;;;;;;5062173;28;20218;-66
2022/09/07 11:02:46;;;;;;;4.10;1.80;;;;;;;;;;5039019;28;20205;-66
2022/09/07 11:05:57;;;;;;;2.00;1.80;;;;;;;;;;5065653;28;20203;-65
2022/09/07 11:08:43;;;;;;;2.23;2.03;;;;;;;;;;5067591;28;20283;-65
2022/09/07 11:11:46;;;;;;;2.47;1.70;;;;;;;;;;5068932;28;20201;-65
2022/09/07 11:14:40;;;;;;;3.13;1.70;;;;;;;;;;5065663;28;20212;-66
2022/09/07 11:17:33;;;;;;;1.97;1.77;;;;;;;;;;5066285;28;20204;-65
2022/09/07 11:20:40;;;;;;;2.73;1.80;;;;;;;;;;5067707;28;20280;-66
2022/09/07 11:23:27;;;;;;;2.27;1.50;;;;;;;;;;5005583;28;20195;-66
2022/09/07 11:26:17;;;;;;;2.13;1.50;;;;;;;;;;5050560;28;20203;-66
2022/09/07 11:28:59;;;;;;;3.63;2.10;;;;;;;;;;5059216;28;20286;-65
2022/09/07 11:31:55;;;;;;;2.30;1.63;;;;;;;;;;5065994;28;20324;-66
2022/09/07 11:34:43;;;;;;;1.90;1.50;;;;;;;;;;5068465;28;20218;-66
2022/09/07 11:37:18;;;;;;;2.47;1.50;;;;;;;;;;5058712;28;20232;-64
2022/09/07 11:40:15;;;;;;;3.03;1.77;;;;;;;;;;5067300;28;20209;-65
2022/09/07 11:42:58;;;;;;;2.57;1.87;;;;;;;;;;5064372;28;20529;-64
2022/09/07 11:45:32;;;;;;;2.00;1.80;;;;;;;;;;5067965;28;20615;-65
2022/09/07 11:48:13;;;;;;;1.97;1.57;;;;;;;;;;5064589;28;20700;-66
2022/09/07 11:51:00;;;;;;;2.07;1.30;;;;;;;;;;5041367;28;20229;-64
2022/09/07 11:53:36;;;;;;;1.97;1.50;;;;;;;;;;5048048;28;20221;-65
2022/09/07 11:56:15;;;;;;;1.77;1.53;;;;;;;;;;5040791;28;20229;-65
2022/09/07 11:59:04;;;;;;;2.73;1.40;;;;;;;;;;5030501;28;20278;-65
2022/09/07 12:01:45;;;;;;;3.33;1.90;;;;;;;;;;5046750;28;20290;-65
2022/09/07 12:04:42;;;;;;;2.77;1.87;;;;;;;;;;5058296;28;20201;-65
2022/09/07 12:07:23;;;;;;;1.63;1.33;;;;;;;;;;5030833;28;20198;-64
2022/09/07 12:10:16;;;;;;;1.83;1.53;;;;;;;;;;5047739;28;20837;-65
2022/09/07 12:13:05;;;;;;;1.87;1.50;;;;;;;;;;5052143;28;20683;-65
2022/09/07 12:15:45;;;;;;;1.90;1.47;;;;;;;;;;5039553;28;20206;-66
2022/09/07 12:18:45;;;;;;;1.83;1.53;;;;;;;;;;5050058;28;20213;-65
2022/09/07 12:21:38;;;;;;;2.10;1.33;;;;;;;;;;5017343;28;20198;-64
2022/09/07 12:24:28;;;;;;;2.23;1.60;;;;;;;;;;5063082;28;20434;-64
2022/09/07 12:26:59;;;;;;;2.73;1.47;;;;;;;;;;5012442;28;20649;-65
2022/09/07 12:29:31;;;;;;;1.80;1.20;;;;;;;;;;5042002;28;20681;-65
2022/09/07 12:32:03;;;;;;;3.27;1.70;;;;;;;;;;5043260;28;21025;-64
2022/09/07 12:34:57;;;;;;;2.07;1.33;;;;;;;;;;5051042;28;20189;-65
2022/09/07 12:37:27;;;;;;;3.07;1.60;;;;;;;;;;5046291;28;20632;-65
2022/09/07 12:40:16;;;;;;;2.47;1.43;;;;;;;;;;5037315;28;20557;-64
2022/09/07 12:42:47;;;;;;;1.87;1.40;;;;;;;;;;5060307;28;20612;-65
2022/09/07 12:45:32;;;;;;;2.03;1.43;;;;;;;;;;5042755;28;20260;-65
2022/09/07 12:48:09;;;;;;;3.43;1.80;;;;;;;;;;5048615;28;20186;-65
2022/09/07 12:51:02;;;;;;;2.50;1.40;;;;;;;;;;5045102;28;20238;-65
2022/09/07 12:53:54;;;;;;;2.03;1.43;;;;;;;;;;5015572;28;20213;-65
2022/09/07 12:56:37;;;;;;;2.80;1.50;;;;;;;;;;5045922;28;20218;-65
2022/09/07 12:59:28;;;;;;;2.43;1.40;;;;;;;;;;5041610;28;20506;-65
2022/09/07 13:02:29;;;;;;;1.80;1.20;;;;;;;;;;5041797;28;20218;-65
2022/09/07 13:05:05;;;;;;;1.27;1.17;;;;;;;;;;5046376;28;20201;-65
2022/09/07 13:07:54;;;;;;;2.07;1.20;;;;;;;;;;5036329;28;20206;-65
2022/09/07 13:10:39;;;;;;;2.17;1.20;;;;;;;;;;5053743;28;20242;-64
2022/09/07 13:13:26;;;;;;;1.27;1.17;;;;;;;;;;5063041;28;20197;-64
2022/09/07 13:16:29;;;;;;;1.47;0.97;;;;;;;;;;5041684;28;20719;-65
2022/09/07 13:19:01;;;;;;;2.00;1.10;;;;;;;;;;5048744;28;20217;-65
2022/09/07 13:21:36;;;;;;;1.97;1.10;;;;;;;;;;5024526;28;20209;-65
2022/09/07 13:24:19;;;;;;;1.80;1.03;;;;;;;;;;5046153;28;20190;-65
2022/09/07 13:27:28;;;;;;;1.43;1.00;;;;;;;;;;5039364;28;20605;-64
2022/09/07 13:30:23;;;;;;;2.10;1.03;;;;;;;;;;5050478;28;20736;-64
2022/09/07 13:32:51;;;;;;;1.10;1.00;;;;;;;;;;5044599;28;20773;-65
2022/09/07 13:35:39;;;;;;;2.63;0.90;;;;;;;;;;5042160;28;20198;-65
2022/09/07 13:38:13;;;;;;;1.90;1.00;;;;;;;;;;5026070;28;20640;-64
2022/09/07 13:40:47;;;;;;;1.90;1.20;;;;;;;;;;5053444;28;20664;-65
2022/09/07 13:43:23;;;;;;;2.03;1.30;;;;;;;;;;5077392;28;20275;-65
2022/09/07 13:46:01;;;;;;;1.90;0.90;;;;;;;;;;5040892;28;20210;-65
2022/09/07 13:48:49;;;;;;;2.47;1.10;;;;;;;;;;5033269;28;20202;-65
2022/09/07 13:51:29;;;;;;;1.07;0.80;;;;;;;;;;5045487;28;20237;-64
2022/09/07 13:54:16;;;;;;;2.43;1.00;;;;;;;;;;5043977;28;20207;-64
2022/09/07 13:56:54;;;;;;;1.10;0.90;;;;;;;;;;5049280;28;20554;-64
2022/09/07 13:59:32;;;;;;;1.50;1.40;;;;;;;;;;5054269;28;20247;-64
2022/09/07 14:02:03;;;;;;;1.53;0.90;;;;;;;;;;5057883;28;20226;-64
2022/09/07 14:04:39;;;;;;;0.93;0.80;;;;;;;;;;5029553;28;20215;-65
2022/09/07 14:07:31;;;;;;;1.97;1.30;;;;;;;;;;5048898;28;20198;-65
2022/09/07 14:10:23;;;;;;;1.27;1.00;;;;;;;;;;5044378;28;20201;-64
2022/09/07 14:12:54;;;;;;;0.90;0.90;;;;;;;;;;5054485;28;20222;-65
2022/09/07 14:15:26;;;;;;;1.60;0.80;;;;;;;;;;5048489;28;20965;-66
2022/09/07 14:18:06;;;;;;;2.95;1.13;;;;;;;;;;5038468;28;20433;-69
2022/09/07 14:20:41;;;;;;;1.43;1.07;;;;;;;;;;5056015;28;20195;-70
2022/09/07 14:23:29;;;;;;;1.53;1.10;;;;;;;;;;5055969;28;20289;-69
2022/09/07 14:26:06;;;;;;;2.93;1.03;;;;;;;;;;5044350;28;20202;-67
2022/09/07 14:28:52;;;;;;;3.50;1.27;;;;;;;;;;5033628;28;20202;-72
2022/09/07 14:31:20;;;;;;;2.00;0.80;;;;;;;;;;5051803;28;20238;-71
2022/09/07 14:33:58;;;;;;;0.90;0.60;;;;;;;;;;5051641;28;20202;-72
2022/09/07 14:36:35;;;;;;;2.07;1.10;;;;;;;;;;5051515;28;20198;-73
2022/09/07 14:39:15;;;;;;;1.57;0.87;;;;;;;;;;5042014;28;20206;-72
2022/09/07 14:41:48;;;;;;;1.33;0.70;;;;;;;;;;5046366;28;20194;-70
2022/09/07 14:44:32;;;;;;;1.53;0.80;;;;;;;;;;5033253;28;20191;-70
2022/09/07 14:47:23;;;;;;;1.90;0.83;;;;;;;;;;5059258;28;20210;-68
2022/09/07 14:49:58;;;;;;;3.10;0.77;;;;;;;;;;5046129;28;20233;-69
2022/09/07 14:52:36;;;;;;;2.27;0.83;;;;;;;;;;5029883;28;20695;-70
2022/09/07 14:55:31;;;;;;;1.30;0.80;;;;;;;;;;5052607;28;20202;-69
2022/09/07 14:58:16;;;;;;;1.30;0.80;;;;;;;;;;5024293;28;20252;-68
2022/09/07 15:00:48;;;;;;;1.53;0.63;;;;;;;;;;5039277;28;20212;-70
2022/09/07 15:03:51;;;;;;;1.93;0.93;;;;;;;;;;5029377;28;20554;-70
2022/09/07 15:06:32;;;;;;;3.93;0.80;;;;;;;;;;5050769;28;20550;-69
2022/09/07 15:09:37;;;;;;;1.60;0.70;;;;;;;;;;5048798;28;20540;-69
2022/09/07 15:12:13;;;;;;;1.57;0.67;;;;;;;;;;5059465;28;20860;-69
2022/09/07 15:14:47;;;;;;;1.00;0.80;;;;;;;;;;5025565;28;20206;-66
2022/09/07 15:17:31;;;;;;;2.20;0.70;;;;;;;;;;5028328;28;20527;-62
2022/09/07 15:20:38;;;;;;;1.63;0.70;;;;;;;;;;5048030;28;20521;-63
2022/09/07 15:23:15;;;;;;;1.30;0.67;;;;;;;;;;5048309;28;20191;-62
2022/09/07 15:25:43;;;;;;;0.63;0.60;;;;;;;;;;5036189;28;20227;-62
2022/09/07 15:28:28;;;;;;;1.90;0.73;;;;;;;;;;5059747;28;20197;-63
2022/09/07 15:31:21;;;;;;;1.53;0.70;;;;;;;;;;5056742;28;20234;-62
2022/09/07 15:34:12;;;;;;;0.80;0.60;;;;;;;;;;5032295;28;20597;-63
2022/09/07 15:37:03;;;;;;;0.93;0.77;;;;;;;;;;5059694;28;20186;-63
2022/09/07 15:39:55;;;;;;;3.73;0.70;;;;;;;;;;5021809;28;20207;-63
2022/09/07 15:42:28;;;;;;;1.50;0.80;;;;;;;;;;5056009;28;20229;-63
2022/09/07 15:45:25;;;;;;;0.67;0.53;;;;;;;;;;5054506;28;20567;-63
2022/09/07 15:47:55;;;;;;;1.87;0.80;;;;;;;;;;5048722;28;20248;-63
2022/09/07 15:50:25;;;;;;;0.63;0.53;;;;;;;;;;5050203;28;20238;-63